Terminal Aerodrome Forecast
Issued by NWS

Home | Current Version | Previous Version | Graphics & Text | Print | Product List | Glossary On
Versions: 1 2 3 4 5 6 7 8 9 10 11 12 13 14 15 16 17 18 19 20 21
000
FTUS43 KGRB 251131
TAFRHI
TAF
KRHI 251131Z 2512/2612 15007KT P6SM BKN250 WS014/17035KT
     FM251400 16007KT P6SM BKN120
     FM252300 13004KT P6SM -SHRA OVC050
     FM260500 09006KT P6SM -SHRA OVC035 WS020/15030KT
     FM260600 08006KT P6SM SHRA OVC025 WS020/15030KT
     FM260900 07006KT P6SM SHRA OVC018 WS020/13035KT=

USA.gov is the U.S. government's official web portal to all federal, state and local government web resources and services.